Time;durP1;ratioP1;P1;durP2;ratioP2;P2;SDS_P1;SDS_P2;PMS_P1;PMS_P2;Temp;Humidity;BMP_temperature;BMP_pressure;BME280_temperature;BME280_humidity;BME280_pressure;Samples;Min_cycle;Max_cycle;Signal;HPM_P1;HPM_P2
2022/11/13 00:02:07;;;;;;;2.42;1.77;;;;;;;23.67;39.02;99989.31;5117056;28;20043;-67
2022/11/13 00:04:33;;;;;;;2.28;1.60;;;;;;;23.65;38.99;99986.06;5117031;28;20043;-67
2022/11/13 00:06:58;;;;;;;2.80;1.88;;;;;;;23.64;38.69;99988.06;5121200;27;20035;-67
2022/11/13 00:09:23;;;;;;;2.03;1.40;;;;;;;23.64;39.09;99979.69;5128659;28;20442;-67
2022/11/13 00:11:49;;;;;;;2.70;1.60;;;;;;;23.66;38.99;99987.69;5129648;27;20047;-56
2022/11/13 00:14:14;;;;;;;2.38;1.50;;;;;;;23.66;39.12;99982.13;5128081;27;20084;-56
2022/11/13 00:16:40;;;;;;;2.65;1.88;;;;;;;23.67;38.98;99981.72;5109625;28;20126;-66
2022/11/13 00:19:05;;;;;;;2.55;1.75;;;;;;;23.68;38.79;99985.31;5114601;27;20031;-68
2022/11/13 00:21:31;;;;;;;2.58;1.80;;;;;;;23.67;38.95;99980.94;5116207;28;20047;-67
2022/11/13 00:23:56;;;;;;;2.85;1.83;;;;;;;23.68;38.70;99985.31;5123840;28;20099;-67
2022/11/13 00:26:24;;;;;;;2.78;1.80;;;;;;;23.68;38.57;99988.13;5123187;27;20490;-67
2022/11/13 00:28:58;;;;;;;2.28;1.55;;;;;;;23.68;38.94;99979.75;5117914;28;20107;-56
2022/11/13 00:31:24;;;;;;;2.40;1.65;;;;;;;23.69;38.73;99972.97;5117874;28;20044;-57
2022/11/13 00:33:50;;;;;;;2.40;1.50;;;;;;;23.67;38.71;99966.97;5123817;28;20095;-67
2022/11/13 00:36:22;;;;;;;2.15;1.40;;;;;;;23.68;38.72;99968.56;5112319;28;20415;-67
2022/11/13 00:38:47;;;;;;;2.25;1.40;;;;;;;23.67;38.65;99958.59;5110833;28;20042;-56
2022/11/13 00:41:13;;;;;;;2.10;1.50;;;;;;;23.66;38.77;99968.97;5111619;27;20043;-56
2022/11/13 00:43:39;;;;;;;2.60;1.70;;;;;;;23.67;38.88;99958.59;5115477;28;20032;-66
2022/11/13 00:46:05;;;;;;;2.25;1.48;;;;;;;23.65;38.76;99953.38;5089603;28;20036;-62
2022/11/13 00:48:30;;;;;;;2.30;1.48;;;;;;;23.64;38.73;99950.94;5123561;28;20087;-57
2022/11/13 00:50:56;;;;;;;1.70;1.27;;;;;;;23.65;38.95;99949.75;5117324;28;20130;-56
2022/11/13 00:53:22;;;;;;;2.40;1.60;;;;;;;23.64;38.69;99950.94;5112657;28;20043;-57
2022/11/13 00:55:47;;;;;;;2.72;1.80;;;;;;;23.65;38.66;99949.75;5119478;28;20052;-56
2022/11/13 00:58:14;;;;;;;2.33;1.50;;;;;;;23.66;38.63;99949.41;5117689;28;20027;-56
2022/11/13 01:00:45;;;;;;;2.30;1.33;;;;;;;23.66;38.78;99948.59;5129044;28;20095;-56
2022/11/13 01:03:11;;;;;;;2.15;1.25;;;;;;;23.64;38.74;99940.59;5123901;28;20126;-67
2022/11/13 01:05:38;;;;;;;1.88;1.30;;;;;;;23.66;38.92;99949.41;5109272;28;20123;-56
2022/11/13 01:08:05;;;;;;;2.40;1.70;;;;;;;23.67;38.74;99944.63;5113640;28;20050;-56
2022/11/13 01:10:32;;;;;;;1.90;1.40;;;;;;;23.74;38.98;99944.69;5115370;28;20510;-56
2022/11/13 01:12:57;;;;;;;1.90;1.20;;;;;;;23.76;38.84;99939.53;5117739;27;20035;-57
2022/11/13 01:15:23;;;;;;;2.15;1.35;;;;;;;23.76;38.70;99936.72;5113992;28;20036;-57
2022/11/13 01:17:49;;;;;;;1.80;1.30;;;;;;;23.78;38.34;99931.56;5119677;27;20051;-68
2022/11/13 01:20:15;;;;;;;2.00;1.30;;;;;;;23.76;38.44;99931.94;5127423;27;20048;-57
2022/11/13 01:22:40;;;;;;;2.42;1.30;;;;;;;23.73;38.47;99929.13;5100157;28;20559;-68
2022/11/13 01:25:06;;;;;;;1.98;1.20;;;;;;;23.74;38.55;99930.75;5131709;28;20039;-57
2022/11/13 01:27:34;;;;;;;2.10;1.35;;;;;;;23.72;38.54;99919.13;5122886;28;20568;-68
2022/11/13 01:29:59;;;;;;;2.28;1.40;;;;;;;23.72;38.59;99916.31;5126811;28;20049;-68
2022/11/13 01:32:24;;;;;;;1.88;1.20;;;;;;;23.71;38.46;99923.09;5115983;28;20039;-68
2022/11/13 01:34:50;;;;;;;2.13;1.33;;;;;;;23.72;39.03;99916.31;5115980;28;20550;-68
2022/11/13 01:37:15;;;;;;;2.92;1.70;;;;;;;23.71;38.48;99917.53;5123859;28;20135;-67
2022/11/13 01:39:40;;;;;;;1.67;1.20;;;;;;;23.71;38.57;99914.72;5121998;28;20043;-68
2022/11/13 01:42:06;;;;;;;1.80;1.30;;;;;;;23.69;38.64;99908.72;5125013;27;20503;-68
2022/11/13 01:44:56;;;;;;;2.17;1.20;;;;;;;23.68;38.49;99905.13;5129147;28;20039;-57
2022/11/13 01:47:22;;;;;;;2.10;1.30;;;;;;;23.68;38.63;99907.13;5113565;28;20062;-57
2022/11/13 01:49:51;;;;;;;2.25;1.42;;;;;;;23.68;38.49;99902.34;5118468;28;20040;-57
2022/11/13 01:52:28;;;;;;;2.10;1.30;;;;;;;23.67;38.41;99899.94;5114567;28;20047;-57
2022/11/13 01:54:58;;;;;;;1.88;1.23;;;;;;;23.66;38.66;99887.97;5113388;28;20051;-57
2022/11/13 01:57:24;;;;;;;1.77;1.27;;;;;;;23.60;38.75;99879.13;5111981;28;20092;-56
2022/11/13 01:59:54;;;;;;;1.70;1.20;;;;;;;23.61;38.78;99886.31;5121390;28;20036;-67
2022/11/13 02:02:20;;;;;;;1.75;1.20;;;;;;;23.61;38.65;99877.94;5113464;27;20185;-57
2022/11/13 02:04:46;;;;;;;1.83;1.20;;;;;;;23.63;38.56;99876.75;5112952;28;20122;-57
2022/11/13 02:07:18;;;;;;;1.92;1.30;;;;;;;23.60;38.71;99876.31;5118591;28;20050;-57
2022/11/13 02:09:48;;;;;;;1.60;1.10;;;;;;;23.63;38.58;99880.34;5119553;28;20043;-68
2022/11/13 02:12:20;;;;;;;1.85;1.20;;;;;;;23.59;38.65;99877.47;5118556;28;20321;-57
2022/11/13 02:14:53;;;;;;;1.50;1.00;;;;;;;23.61;38.52;99877.94;5120985;28;20134;-66
2022/11/13 02:17:47;;;;;;;1.58;1.00;;;;;;;23.62;38.60;99878.72;5114089;28;20054;-56
2022/11/13 02:20:15;;;;;;;1.85;1.10;;;;;;;23.63;38.44;99873.94;5120593;28;20411;-66
2022/11/13 02:23:11;;;;;;;1.90;1.17;;;;;;;23.61;38.45;99868.75;5095194;28;20131;-56
2022/11/13 02:25:38;;;;;;;2.10;1.33;;;;;;;23.63;38.43;99862.78;5114208;28;20070;-68
2022/11/13 02:28:03;;;;;;;1.80;1.13;;;;;;;23.61;38.48;99874.34;5126673;28;20484;-68
2022/11/13 02:30:32;;;;;;;2.33;1.45;;;;;;;23.60;38.53;99867.94;5115671;27;20383;-58
2022/11/13 02:32:58;;;;;;;1.67;1.20;;;;;;;23.58;38.40;99859.13;5111543;28;20122;-68
2022/11/13 02:35:30;;;;;;;1.85;1.27;;;;;;;23.57;38.55;99860.28;5128443;28;20051;-66
2022/11/13 02:37:58;;;;;;;1.70;1.10;;;;;;;23.59;38.38;99862.72;5112278;28;20052;-66
2022/11/13 02:40:23;;;;;;;1.60;1.02;;;;;;;23.57;38.56;99863.06;5129324;28;20524;-56
2022/11/13 02:42:49;;;;;;;1.80;1.10;;;;;;;23.55;38.38;99856.28;5117320;28;20118;-66
2022/11/13 02:45:15;;;;;;;1.95;1.30;;;;;;;23.57;38.56;99857.50;5125727;28;20049;-57
2022/11/13 02:47:40;;;;;;;1.45;1.02;;;;;;;23.56;38.17;99843.94;5117778;27;20089;-57
2022/11/13 02:50:06;;;;;;;1.77;1.00;;;;;;;23.59;38.49;99838.38;5116961;28;20403;-55
2022/11/13 02:52:32;;;;;;;1.40;0.90;;;;;;;23.67;38.48;99849.66;5123488;28;20140;-56
2022/11/13 02:54:57;;;;;;;1.90;1.25;;;;;;;23.68;38.49;99848.47;5120438;28;20385;-67
2022/11/13 02:57:22;;;;;;;1.23;0.90;;;;;;;23.69;38.28;99841.69;5110899;28;20059;-56
2022/11/13 02:59:48;;;;;;;1.73;1.13;;;;;;;23.70;38.18;99843.28;5127698;28;20035;-56
2022/11/13 03:02:13;;;;;;;1.48;1.00;;;;;;;23.68;38.02;99838.09;5120816;28;20036;-67
2022/11/13 03:04:39;;;;;;;1.48;1.13;;;;;;;23.67;38.11;99839.28;5121757;28;20031;-66
2022/11/13 03:07:04;;;;;;;1.90;1.20;;;;;;;23.66;38.55;99837.69;5110921;28;20051;-67
2022/11/13 03:09:29;;;;;;;1.90;1.20;;;;;;;23.65;38.34;99836.09;5111781;28;20105;-67
2022/11/13 03:11:55;;;;;;;1.50;0.88;;;;;;;23.66;38.19;99846.06;5117474;28;20043;-67
2022/11/13 03:14:20;;;;;;;1.63;1.00;;;;;;;23.64;38.17;99839.25;5128207;28;20486;-57
2022/11/13 03:16:46;;;;;;;1.23;0.90;;;;;;;23.64;38.28;99842.03;5116447;28;20096;-67
2022/11/13 03:19:11;;;;;;;1.65;1.05;;;;;;;23.64;38.28;99842.03;5116611;28;20031;-56
2022/11/13 03:21:36;;;;;;;1.42;1.00;;;;;;;23.64;38.25;99844.81;5130625;27;20039;-67
2022/11/13 03:24:02;;;;;;;1.35;1.00;;;;;;;23.63;38.36;99841.22;5114938;28;20521;-66
2022/11/13 03:26:28;;;;;;;1.55;1.00;;;;;;;23.62;38.27;99834.03;5092473;28;20042;-56
2022/11/13 03:28:54;;;;;;;1.63;1.00;;;;;;;23.63;38.33;99832.84;5110310;28;20457;-67
2022/11/13 03:31:19;;;;;;;1.60;0.98;;;;;;;23.64;38.14;99828.06;5114897;28;20060;-56
2022/11/13 03:33:44;;;;;;;1.55;1.00;;;;;;;23.62;38.19;99825.66;5113127;28;20381;-57
2022/11/13 03:36:10;;;;;;;1.85;1.15;;;;;;;23.58;38.23;99822.81;5110733;28;20035;-68
2022/11/13 03:38:36;;;;;;;1.50;1.08;;;;;;;23.64;38.44;99828.06;5115611;28;20128;-68
2022/11/13 03:41:02;;;;;;;1.60;1.10;;;;;;;23.63;38.30;99823.69;5118227;28;20044;-67
2022/11/13 03:43:27;;;;;;;1.60;1.00;;;;;;;23.61;38.28;99824.88;5117604;28;20103;-57
2022/11/13 03:45:53;;;;;;;1.60;1.00;;;;;;;23.64;38.33;99811.31;5114843;27;20050;-68
2022/11/13 03:48:18;;;;;;;1.70;1.20;;;;;;;23.63;38.39;99809.72;5114504;28;20047;-55
2022/11/13 03:50:46;;;;;;;1.50;1.00;;;;;;;23.64;38.18;99808.53;5118502;28;20039;-57
2022/11/13 03:53:13;;;;;;;1.48;1.00;;;;;;;23.63;38.31;99802.13;5112315;28;20141;-67
2022/11/13 03:55:39;;;;;;;1.88;1.13;;;;;;;23.64;38.28;99803.75;5116617;28;20066;-67
2022/11/13 03:58:04;;;;;;;1.40;1.00;;;;;;;23.61;38.19;99796.16;5115145;28;20039;-67
2022/11/13 04:00:30;;;;;;;1.63;1.08;;;;;;;23.61;38.30;99796.16;5115947;28;20090;-57
2022/11/13 04:02:56;;;;;;;1.63;1.13;;;;;;;23.60;38.37;99798.13;5121496;28;20088;-57
2022/11/13 04:05:21;;;;;;;1.70;1.10;;;;;;;23.60;38.28;99788.94;5123660;28;20048;-58
2022/11/13 04:07:47;;;;;;;1.55;0.90;;;;;;;23.60;38.37;99794.50;5120867;28;20066;-68
2022/11/13 04:10:12;;;;;;;1.58;1.10;;;;;;;23.61;38.23;99784.97;5092494;28;20042;-57
2022/11/13 04:12:38;;;;;;;1.90;1.00;;;;;;;23.60;38.42;99794.50;5115182;28;20046;-68
2022/11/13 04:15:04;;;;;;;1.45;1.10;;;;;;;23.59;38.49;99787.31;5109975;28;20032;-68
2022/11/13 04:17:29;;;;;;;1.83;1.10;;;;;;;23.59;38.36;99776.16;5109919;28;20081;-68
2022/11/13 04:19:55;;;;;;;1.77;1.10;;;;;;;23.59;38.23;99778.94;5122569;28;20047;-57
2022/11/13 04:22:20;;;;;;;1.48;1.08;;;;;;;23.63;38.43;99779.78;5123436;27;20454;-57
2022/11/13 04:24:45;;;;;;;1.55;1.00;;;;;;;23.67;38.61;99774.25;5109589;28;20043;-68
2022/11/13 04:27:11;;;;;;;1.25;0.90;;;;;;;23.69;38.48;99769.06;5122336;27;20048;-57
2022/11/13 04:29:36;;;;;;;1.75;1.13;;;;;;;23.71;38.31;99772.28;5118655;27;20046;-67
2022/11/13 04:32:01;;;;;;;1.83;1.13;;;;;;;23.70;38.18;99773.47;5126591;27;20091;-57
2022/11/13 04:34:27;;;;;;;2.00;1.20;;;;;;;23.68;38.28;99767.47;5120803;27;20075;-57
2022/11/13 04:36:52;;;;;;;3.03;0.90;;;;;;;23.65;38.46;99773.81;5119559;28;20122;-68
2022/11/13 04:39:17;;;;;;;1.70;1.05;;;;;;;23.65;38.41;99765.44;5123957;27;20395;-57
2022/11/13 04:44:27;;;;;;;1.42;1.00;;;;;;;23.60;38.41;99767.41;5117523;27;20104;-66
2022/11/13 04:46:52;;;;;;;1.40;0.98;;;;;;;23.62;38.37;99769.81;5114633;28;20047;-68
2022/11/13 04:49:17;;;;;;;1.65;1.10;;;;;;;23.62;38.36;99761.44;5117239;27;20127;-68
2022/11/13 04:51:43;;;;;;;1.50;1.00;;;;;;;23.61;38.29;99765.44;5101458;28;20043;-68
2022/11/13 04:54:08;;;;;;;1.70;1.20;;;;;;;23.60;38.31;99761.84;5111497;28;20376;-57
2022/11/13 04:56:34;;;;;;;1.83;1.10;;;;;;;23.62;38.31;99764.22;5126355;28;20051;-68
2022/11/13 04:58:59;;;;;;;1.52;1.00;;;;;;;23.58;38.35;99757.81;5113535;28;20047;-57
2022/11/13 05:01:24;;;;;;;1.60;1.00;;;;;;;23.59;38.22;99759.41;5117570;28;20551;-57
2022/11/13 05:03:50;;;;;;;1.50;1.08;;;;;;;23.58;38.47;99760.59;5113107;28;20048;-57
2022/11/13 05:06:15;;;;;;;1.70;1.10;;;;;;;23.58;38.39;99757.81;5129007;28;20035;-66
2022/11/13 05:08:40;;;;;;;1.77;1.20;;;;;;;23.60;38.12;99755.41;5122831;27;20532;-67
2022/11/13 05:11:06;;;;;;;1.70;1.10;;;;;;;23.57;38.30;99745.81;5118159;27;20042;-56
2022/11/13 05:13:33;;;;;;;1.55;1.00;;;;;;;23.59;38.03;99746.25;5129893;28;20039;-66
2022/11/13 05:16:03;;;;;;;2.00;1.30;;;;;;;23.57;38.24;99740.22;5113502;28;20043;-66
2022/11/13 05:18:29;;;;;;;1.58;1.08;;;;;;;23.59;38.25;99737.88;5116256;28;20514;-56
2022/11/13 05:20:54;;;;;;;1.70;1.08;;;;;;;23.61;38.40;99732.72;5116162;28;20027;-67
2022/11/13 05:23:19;;;;;;;1.40;0.90;;;;;;;23.58;38.30;99722.31;5121201;28;20529;-67
2022/11/13 05:25:45;;;;;;;1.52;0.95;;;;;;;23.59;38.20;99721.09;5122055;28;20064;-57
2022/11/13 05:28:10;;;;;;;1.67;1.10;;;;;;;23.58;38.23;99719.50;5116326;28;20087;-57
2022/11/13 05:30:35;;;;;;;1.90;1.20;;;;;;;23.60;38.24;99721.91;5114863;28;20050;-57
2022/11/13 05:33:01;;;;;;;1.42;0.98;;;;;;;23.59;38.07;99706.34;5113070;27;20452;-68
2022/11/13 05:35:26;;;;;;;1.63;1.13;;;;;;;23.60;38.13;99714.34;5123442;28;20043;-57
2022/11/13 05:37:52;;;;;;;1.52;1.08;;;;;;;23.59;38.15;99721.09;5124368;28;20086;-57
2022/11/13 05:40:17;;;;;;;1.50;1.00;;;;;;;23.61;38.04;99713.16;5122961;27;20035;-57
2022/11/13 05:42:42;;;;;;;1.30;0.80;;;;;;;23.58;37.88;99708.34;5119756;28;20047;-57
2022/11/13 05:45:08;;;;;;;1.33;0.88;;;;;;;23.59;38.17;99709.94;5117056;28;20468;-68
2022/11/13 05:47:34;;;;;;;1.50;1.05;;;;;;;23.59;38.30;99712.72;5122247;28;20043;-68
2022/11/13 05:49:59;;;;;;;1.42;1.00;;;;;;;23.60;38.12;99705.97;5115859;28;20043;-57
2022/11/13 05:52:24;;;;;;;2.20;1.15;;;;;;;23.60;37.96;99705.16;5118715;28;20099;-68
2022/11/13 05:54:50;;;;;;;1.88;1.30;;;;;;;23.61;38.03;99712.38;5120263;28;20051;-57
2022/11/13 05:57:15;;;;;;;3.65;1.30;;;;;;;23.61;37.79;99707.59;5111825;28;20329;-67
2022/11/13 05:59:41;;;;;;;1.73;1.17;;;;;;;23.58;38.08;99701.94;5115014;27;20044;-68
2022/11/13 06:02:06;;;;;;;1.77;1.10;;;;;;;23.57;38.13;99706.72;5118902;28;20415;-57
2022/11/13 06:04:32;;;;;;;1.75;1.10;;;;;;;23.60;38.00;99711.56;5130749;27;20074;-57
2022/11/13 06:06:57;;;;;;;1.15;0.90;;;;;;;23.64;38.17;99708.78;5132531;28;20460;-56
2022/11/13 06:09:22;;;;;;;1.67;1.08;;;;;;;23.67;38.23;99710.81;5114670;27;20139;-56
2022/11/13 06:11:48;;;;;;;1.75;1.00;;;;;;;23.67;38.21;99710.03;5117242;28;20082;-67
2022/11/13 06:14:13;;;;;;;1.55;1.20;;;;;;;23.69;38.09;99710.44;5124492;28;20118;-68
2022/11/13 06:16:39;;;;;;;2.00;1.20;;;;;;;23.67;38.04;99715.59;5129833;27;20062;-67
2022/11/13 06:19:08;;;;;;;1.70;1.10;;;;;;;23.67;38.04;99704.44;5111874;28;20389;-56
2022/11/13 06:21:36;;;;;;;1.52;1.10;;;;;;;23.64;38.08;99714.38;5115854;28;20085;-56
2022/11/13 06:24:01;;;;;;;1.48;1.00;;;;;;;23.63;37.98;99703.59;5121356;27;20035;-68
2022/11/13 06:26:30;;;;;;;1.50;1.00;;;;;;;23.64;37.97;99710.78;5111817;28;20073;-57
2022/11/13 06:28:56;;;;;;;1.60;1.00;;;;;;;23.64;37.98;99710.78;5121677;28;20047;-68
2022/11/13 06:31:25;;;;;;;1.52;1.00;;;;;;;23.63;38.12;99707.19;5114512;28;20047;-57
2022/11/13 06:33:51;;;;;;;1.75;1.10;;;;;;;23.63;38.13;99709.19;5114571;28;20035;-57
2022/11/13 06:36:21;;;;;;;1.67;1.08;;;;;;;23.60;38.07;99705.16;5118886;28;20047;-68
2022/11/13 06:38:48;;;;;;;1.60;1.10;;;;;;;23.60;38.02;99705.16;5118616;27;20081;-67
2022/11/13 06:41:16;;;;;;;1.30;0.90;;;;;;;23.60;37.88;99708.78;5111360;28;20043;-57
2022/11/13 06:43:42;;;;;;;1.45;1.00;;;;;;;23.61;38.19;99698.41;5115943;28;20942;-56
2022/11/13 06:46:11;;;;;;;1.90;1.10;;;;;;;23.61;37.88;99704.00;5094303;28;20079;-57
2022/11/13 06:48:37;;;;;;;1.60;1.00;;;;;;;23.60;38.07;99700.41;5120483;28;20054;-67
2022/11/13 06:51:04;;;;;;;1.17;0.93;;;;;;;23.61;38.10;99696.41;5117332;28;20039;-56
2022/11/13 06:53:30;;;;;;;1.73;1.13;;;;;;;23.59;38.21;99695.97;5119483;27;20079;-56
2022/11/13 06:55:56;;;;;;;1.23;0.85;;;;;;;23.60;38.05;99694.81;5129882;28;20513;-68
2022/11/13 06:58:22;;;;;;;1.88;1.20;;;;;;;23.59;38.07;99693.19;5131970;28;20440;-56
2022/11/13 07:00:48;;;;;;;1.33;0.80;;;;;;;23.60;38.23;99693.97;5129009;28;20126;-67
2022/11/13 07:03:20;;;;;;;1.50;1.00;;;;;;;23.60;37.93;99686.44;5121745;27;20131;-66
2022/11/13 07:05:46;;;;;;;;;;;;;;;23.66;38.15;99697.25;5128033;28;20042;-67
2022/11/13 07:08:12;;;;;;;1.88;1.20;;;;;;;23.58;38.03;99680.41;5113160;28;19916;-56
2022/11/13 07:10:39;;;;;;;1.35;1.00;;;;;;;23.60;37.95;99694.81;5122363;28;20066;-56
2022/11/13 07:13:04;;;;;;;2.42;1.15;;;;;;;23.58;38.03;99688.00;5121467;28;20130;-68
2022/11/13 07:15:37;;;;;;;1.75;1.10;;;;;;;23.57;38.04;99694.75;5120012;27;20051;-68
2022/11/13 07:18:04;;;;;;;2.28;1.25;;;;;;;23.56;38.15;99688.34;5110505;28;20519;-57
2022/11/13 07:20:30;;;;;;;1.33;0.90;;;;;;;23.57;38.04;99697.53;5114969;28;20079;-56
2022/11/13 07:22:57;;;;;;;1.67;1.08;;;;;;;23.56;38.15;99693.94;5118242;27;20031;-67
2022/11/13 07:25:22;;;;;;;1.85;1.13;;;;;;;23.57;38.15;99691.94;5114635;28;20040;-56
2022/11/13 07:27:48;;;;;;;1.17;0.90;;;;;;;23.56;38.08;99679.97;5110589;28;20116;-56
2022/11/13 07:30:13;;;;;;;2.22;1.40;;;;;;;23.55;38.14;99675.59;5115878;28;20585;-66
2022/11/13 07:32:38;;;;;;;1.60;0.90;;;;;;;23.57;38.08;99684.38;5120260;28;20054;-56
2022/11/13 07:35:04;;;;;;;1.80;1.20;;;;;;;23.55;38.15;99686.75;5117435;28;20031;-68
2022/11/13 07:37:30;;;;;;;1.55;1.00;;;;;;;23.59;38.12;99687.59;5115204;27;20040;-57
2022/11/13 07:39:55;;;;;;;1.65;1.10;;;;;;;23.63;38.30;99684.06;5112202;28;20043;-57
2022/11/13 07:42:20;;;;;;;2.03;1.40;;;;;;;23.66;38.17;99686.09;5114997;28;20496;-68
2022/11/13 07:44:46;;;;;;;2.83;1.00;;;;;;;23.67;38.06;99682.09;5112750;28;20067;-55
2022/11/13 07:47:11;;;;;;;1.38;1.00;;;;;;;23.65;38.04;99684.47;5123336;28;20414;-67
2022/11/13 07:49:37;;;;;;;1.30;0.90;;;;;;;23.64;37.93;99678.06;5116530;27;20035;-65
2022/11/13 07:52:02;;;;;;;1.73;1.00;;;;;;;23.67;37.98;99682.09;5120770;28;20451;-67
2022/11/13 07:54:28;;;;;;;1.80;1.10;;;;;;;23.66;37.95;99674.91;5116112;28;20043;-57
2022/11/13 07:56:53;;;;;;;1.67;1.13;;;;;;;23.66;38.04;99675.72;5116034;28;20035;-57
2022/11/13 07:59:18;;;;;;;1.70;1.17;;;;;;;23.64;38.03;99671.69;5131191;28;20047;-68
2022/11/13 08:01:44;;;;;;;1.63;1.10;;;;;;;23.61;37.99;99668.50;5129410;28;20038;-68
2022/11/13 08:04:09;;;;;;;1.60;1.08;;;;;;;23.60;38.13;99675.25;5112575;27;20506;-68
2022/11/13 08:06:40;;;;;;;2.08;1.25;;;;;;;23.60;38.27;99671.66;5110090;28;20418;-68
2022/11/13 08:09:05;;;;;;;1.48;1.05;;;;;;;23.58;38.06;99666.44;5112975;28;20043;-68
2022/11/13 08:11:31;;;;;;;1.48;1.05;;;;;;;23.61;38.11;99667.69;5116054;28;20054;-57
2022/11/13 08:13:56;;;;;;;1.73;1.08;;;;;;;23.61;38.15;99671.28;5124657;28;20035;-57
2022/11/13 08:16:24;;;;;;;2.00;1.15;;;;;;;23.61;38.14;99665.69;5115520;27;20439;-68
2022/11/13 08:18:50;;;;;;;1.70;1.10;;;;;;;23.60;38.09;99668.84;5117218;28;20367;-68
2022/11/13 08:21:15;;;;;;;1.85;1.30;;;;;;;23.59;38.09;99670.03;5117207;27;20322;-68
2022/11/13 08:23:41;;;;;;;1.88;1.20;;;;;;;23.60;38.18;99661.31;5112226;28;20118;-68
2022/11/13 08:26:08;;;;;;;1.55;1.08;;;;;;;23.60;38.21;99666.88;5110805;28;20515;-57
2022/11/13 08:28:34;;;;;;;1.45;1.00;;;;;;;23.59;38.12;99659.69;5119082;28;20058;-68
2022/11/13 08:31:00;;;;;;;1.35;1.00;;;;;;;23.59;38.17;99661.66;5130232;28;20042;-57
2022/11/13 08:33:26;;;;;;;1.52;1.00;;;;;;;23.61;38.27;99667.69;5115462;28;20055;-65
2022/11/13 08:35:53;;;;;;;1.52;0.90;;;;;;;23.60;38.11;99661.31;5123566;28;20097;-56
2022/11/13 08:38:18;;;;;;;1.42;1.05;;;;;;;23.60;38.23;99650.13;5109714;28;20043;-57
2022/11/13 08:40:43;;;;;;;1.90;1.15;;;;;;;23.60;38.24;99643.72;5097231;27;20035;-68
2022/11/13 08:43:09;;;;;;;1.45;1.05;;;;;;;23.59;38.26;99644.91;5118903;28;20506;-67
2022/11/13 08:45:34;;;;;;;1.73;1.20;;;;;;;23.60;38.25;99652.94;5111540;27;20130;-67
2022/11/13 08:48:01;;;;;;;1.50;1.10;;;;;;;23.60;38.16;99650.13;5109055;28;20047;-67
2022/11/13 08:50:27;;;;;;;2.30;1.20;;;;;;;23.61;38.26;99660.09;5109930;28;20051;-56
2022/11/13 08:52:57;;;;;;;1.40;1.00;;;;;;;23.61;38.10;99648.13;5123044;27;20039;-56
2022/11/13 08:55:23;;;;;;;1.65;1.13;;;;;;;23.61;38.19;99657.31;5128491;27;20461;-67
2022/11/13 08:57:49;;;;;;;1.60;1.10;;;;;;;23.59;38.23;99651.28;5118435;28;20534;-68
2022/11/13 09:00:15;;;;;;;1.58;1.10;;;;;;;23.59;38.13;99659.69;5125537;28;20048;-68
2022/11/13 09:02:41;;;;;;;1.80;1.10;;;;;;;23.56;38.16;99651.25;5120139;27;20040;-68
2022/11/13 09:05:07;;;;;;;1.38;1.00;;;;;;;23.60;38.18;99661.31;5110724;28;20056;-69
2022/11/13 09:07:32;;;;;;;1.20;0.93;;;;;;;23.59;38.24;99653.28;5112181;28;20040;-57
2022/11/13 09:09:58;;;;;;;1.67;1.10;;;;;;;23.58;38.23;99654.50;5109154;28;20581;-68
2022/11/13 09:12:23;;;;;;;1.70;1.10;;;;;;;23.59;38.38;99654.09;5117555;27;20050;-66
2022/11/13 09:14:48;;;;;;;1.30;0.90;;;;;;;23.57;38.05;99645.28;5114470;27;20044;-56
2022/11/13 09:17:14;;;;;;;1.63;1.10;;;;;;;23.59;38.26;99647.72;5109487;28;20106;-56
2022/11/13 09:19:39;;;;;;;1.55;1.10;;;;;;;23.64;38.31;99652.94;5112851;27;20053;-67
2022/11/13 09:22:05;;;;;;;1.80;1.10;;;;;;;23.66;38.38;99647.78;5127427;28;20058;-66
2022/11/13 09:24:30;;;;;;;1.58;1.08;;;;;;;23.68;38.20;99658.56;5116809;27;20043;-67
2022/11/13 09:26:56;;;;;;;1.77;1.10;;;;;;;23.69;38.10;99657.38;5110192;28;20043;-66
2022/11/13 09:29:22;;;;;;;1.55;1.05;;;;;;;23.68;37.99;99652.97;5114812;28;20043;-67
2022/11/13 09:31:48;;;;;;;1.75;1.10;;;;;;;23.68;38.32;99650.19;5111460;28;20535;-67
2022/11/13 09:34:14;;;;;;;2.05;1.27;;;;;;;23.68;38.36;99648.19;5110146;28;20221;-67
2022/11/13 09:36:40;;;;;;;1.50;1.20;;;;;;;23.68;38.15;99650.97;5111762;28;20435;-67
2022/11/13 09:39:06;;;;;;;1.70;1.08;;;;;;;23.66;38.37;99658.97;5129287;27;20043;-55
2022/11/13 09:41:38;;;;;;;1.90;1.20;;;;;;;23.65;38.18;99662.13;5117718;28;20046;-67
2022/11/13 09:44:10;;;;;;;2.20;1.35;;;;;;;23.63;38.31;99656.94;5117336;28;20040;-56
2022/11/13 09:46:52;;;;;;;2.05;1.23;;;;;;;23.62;38.22;99660.91;5112533;28;20484;-56
2022/11/13 09:49:28;;;;;;;1.80;1.30;;;;;;;23.60;38.33;99652.94;5116957;28;20044;-56
2022/11/13 09:52:02;;;;;;;2.13;1.17;;;;;;;23.60;38.43;99666.88;5125164;28;20400;-67
2022/11/13 09:54:27;;;;;;;2.22;1.30;;;;;;;23.60;38.34;99666.06;5132833;28;20126;-67
2022/11/13 09:57:30;;;;;;;1.90;1.20;;;;;;;23.58;38.36;99677.63;5099067;28;20036;-55
2022/11/13 10:00:01;;;;;;;1.90;1.40;;;;;;;23.61;38.27;99673.28;5117097;27;20581;-68
2022/11/13 10:02:26;;;;;;;1.95;1.27;;;;;;;23.59;38.31;99676.44;5119700;28;20088;-56
2022/11/13 10:05:08;;;;;;;1.88;1.30;;;;;;;23.59;38.44;99682.00;5116253;28;20051;-67
2022/11/13 10:07:47;;;;;;;2.00;1.30;;;;;;;23.61;38.33;99684.44;5101708;28;20047;-56
2022/11/13 10:10:23;;;;;;;1.77;1.20;;;;;;;23.60;38.57;99686.44;5105061;28;20127;-56
2022/11/13 10:12:52;;;;;;;1.67;1.20;;;;;;;23.60;38.40;99669.69;5114486;28;20426;-67
2022/11/13 10:15:19;;;;;;;1.73;1.20;;;;;;;23.59;38.42;99658.88;5127978;28;20043;-56
2022/11/13 10:17:54;;;;;;;2.00;1.20;;;;;;;23.59;38.49;99661.66;5091713;28;20051;-56
2022/11/13 10:20:47;;;;;;;2.33;1.40;;;;;;;23.58;38.47;99646.91;5122504;28;20039;-56
2022/11/13 10:23:34;;;;;;;1.65;1.30;;;;;;;23.58;38.59;99651.69;5119298;28;20035;-67
2022/11/13 10:26:14;;;;;;;2.35;1.40;;;;;;;23.58;38.54;99646.91;5117611;28;20035;-60
2022/11/13 10:28:40;;;;;;;2.05;1.27;;;;;;;23.60;38.38;99644.56;5119617;28;20128;-67
2022/11/13 10:31:09;;;;;;;1.83;1.23;;;;;;;23.60;38.52;99650.13;5096938;28;20450;-67
2022/11/13 10:33:35;;;;;;;1.85;1.30;;;;;;;23.61;38.37;99646.16;5113224;28;20515;-56
2022/11/13 10:36:22;;;;;;;2.00;1.38;;;;;;;23.62;38.45;99641.38;5117215;27;20101;-67
2022/11/13 10:38:57;;;;;;;1.73;1.15;;;;;;;23.60;38.61;99636.16;5111668;28;20395;-56
2022/11/13 10:41:22;;;;;;;1.65;1.15;;;;;;;23.62;38.58;99630.19;5111584;28;20415;-66
2022/11/13 10:43:55;;;;;;;2.05;1.40;;;;;;;23.61;38.79;99626.59;5116129;28;20508;-68
2022/11/13 10:46:23;;;;;;;2.50;1.42;;;;;;;23.61;38.56;99629.41;5119342;28;20221;-67
2022/11/13 10:48:49;;;;;;;1.98;1.30;;;;;;;23.62;38.65;99616.22;5131205;28;20526;-56
2022/11/13 10:51:30;;;;;;;1.80;1.30;;;;;;;23.59;38.59;99612.22;5129717;27;20024;-56
2022/11/13 10:53:57;;;;;;;2.00;1.45;;;;;;;23.60;38.49;99599.88;5137174;27;20043;-56
2022/11/13 10:56:30;;;;;;;1.92;1.23;;;;;;;23.61;38.67;99611.84;5115057;27;20048;-56
2022/11/13 10:59:19;;;;;;;1.85;1.30;;;;;;;23.60;38.53;99608.25;5111102;28;20039;-56
2022/11/13 11:01:46;;;;;;;1.98;1.30;;;;;;;23.61;38.67;99597.88;5086512;28;20532;-56
2022/11/13 11:04:18;;;;;;;1.50;1.10;;;;;;;23.60;38.77;99582.28;5123829;28;20074;-68
2022/11/13 11:06:44;;;;;;;2.10;1.40;;;;;;;23.67;38.66;99587.94;5121089;28;20039;-67
2022/11/13 11:09:18;;;;;;;2.13;1.40;;;;;;;23.70;38.76;99601.13;5115791;27;20073;-56
2022/11/13 11:12:20;;;;;;;2.03;1.30;;;;;;;23.70;38.69;99583.56;5128603;28;20125;-67
2022/11/13 11:14:57;;;;;;;1.77;1.27;;;;;;;23.71;38.55;99569.19;5105978;28;21224;-66
2022/11/13 11:17:45;;;;;;;1.90;1.30;;;;;;;23.71;38.74;99574.00;5112930;27;20043;-67
2022/11/13 11:20:41;;;;;;;2.08;1.30;;;;;;;23.70;38.59;99564.00;5110887;28;20071;-67
2022/11/13 11:23:38;;;;;;;1.90;1.30;;;;;;;23.68;38.57;99544.84;5104829;28;20053;-67
2022/11/13 11:26:18;;;;;;;2.20;1.42;;;;;;;23.68;38.67;99536.47;5100792;28;20039;-67
2022/11/13 11:28:43;;;;;;;2.22;1.40;;;;;;;23.68;38.50;99532.88;5113081;28;20140;-67
2022/11/13 11:31:30;;;;;;;2.00;1.30;;;;;;;23.67;38.85;99532.09;5123528;27;20177;-56
2022/11/13 11:34:18;;;;;;;1.85;1.25;;;;;;;23.66;38.79;99541.66;5110258;28;20453;-67
2022/11/13 11:37:20;;;;;;;1.90;1.30;;;;;;;23.66;38.72;99552.03;5117978;27;20506;-57
2022/11/13 11:40:19;;;;;;;2.33;1.50;;;;;;;23.65;38.69;99536.44;5114950;28;20043;-68
2022/11/13 11:42:52;;;;;;;2.35;1.48;;;;;;;23.66;38.97;99529.69;5103859;28;20055;-56